Time;durP1;ratioP1;P1;durP2;ratioP2;P2;SDS_P1;SDS_P2;PMS_P1;PMS_P2;Temp;Humidity;BMP_temperature;BMP_pressure;BME280_temperature;BME280_humidity;BME280_pressure;Samples;Min_cycle;Max_cycle;Signal;HPM_P1;HPM_P2
2023/10/28 11:27:07;;;;;;;1.40;0.50;;;;;;;18.86;45.60;97181.65;106882;1284;612691;-89
2023/10/28 11:29:37;;;;;;;0.30;0.30;;;;;;;19.06;43.83;97178.33;108417;1266;117299;-89
2023/10/28 11:32:09;;;;;;;0.60;0.30;;;;;;;19.11;44.27;97171.35;108835;1259;59458;-89
2023/10/28 11:34:40;;;;;;;0.40;0.40;;;;;;;19.19;43.75;97179.81;109162;1256;71035;-90
2023/10/28 11:37:08;;;;;;;0.80;0.20;;;;;;;19.25;42.79;97194.30;108907;1256;73009;-90
2023/10/28 11:39:37;;;;;;;0.60;0.20;;;;;;;19.22;42.10;97182.37;109017;1256;71098;-90
2023/10/28 11:42:11;;;;;;;0.80;0.20;;;;;;;19.28;42.04;97186.33;108832;1256;60031;-89
2023/10/28 11:44:41;;;;;;;0.60;0.30;;;;;;;19.35;41.93;97187.27;108854;1256;62208;-90
2023/10/28 11:47:09;;;;;;;0.30;0.30;;;;;;;19.46;41.15;97185.73;109020;1256;71896;-90
2023/10/28 11:49:37;;;;;;;0.20;0.20;;;;;;;19.49;41.13;97184.02;108913;1256;73764;-91
2023/10/28 11:52:05;;;;;;;0.10;0.10;;;;;;;19.47;40.05;97207.08;109071;1256;71823;-89
2023/10/28 11:54:33;;;;;;;0.40;0.30;;;;;;;19.28;40.55;97196.33;109074;1256;60140;-89
2023/10/28 11:57:00;;;;;;;0.30;0.30;;;;;;;19.02;41.13;97196.81;109080;1256;58799;-89
2023/10/28 11:59:28;;;;;;;0.80;0.30;;;;;;;18.78;41.79;97197.17;108919;1256;73042;-90
2023/10/28 12:01:55;;;;;;;0.80;0.50;;;;;;;18.55;42.25;97196.71;108884;1256;75006;-91
2023/10/28 12:04:25;;;;;;;0.60;0.30;;;;;;;18.39;42.62;97199.70;108868;1256;73860;-90
2023/10/28 12:06:52;;;;;;;0.30;0.30;;;;;;;18.29;42.71;97207.77;108891;1256;60109;-91
2023/10/28 12:09:20;;;;;;;0.30;0.30;;;;;;;18.29;43.12;97197.48;108897;1256;60543;-91
2023/10/28 12:11:51;;;;;;;0.50;0.50;;;;;;;18.40;43.22;97208.09;108868;1262;72140;-91
2023/10/28 12:14:19;;;;;;;0.50;0.50;;;;;;;18.56;43.19;97201.66;108868;1256;73191;-90
2023/10/28 12:16:46;;;;;;;0.20;0.20;;;;;;;18.74;43.15;97194.48;109176;1256;71377;-91
2023/10/28 12:19:16;;;;;;;2.30;0.30;;;;;;;18.89;43.27;97198.23;108908;1256;61123;-91
2023/10/28 12:21:44;;;;;;;0.50;0.40;;;;;;;19.02;43.13;97192.83;108761;1259;60382;-90
2023/10/28 12:24:12;;;;;;;1.70;0.40;;;;;;;19.04;42.93;97196.42;108997;1258;71802;-89
2023/10/28 12:26:40;;;;;;;0.20;0.20;;;;;;;18.98;43.04;97196.86;108973;1259;73614;-90
2023/10/28 12:29:10;;;;;;;2.90;0.80;;;;;;;18.89;42.25;97196.18;108798;1259;71699;-90
2023/10/28 12:31:38;;;;;;;0.20;0.20;;;;;;;18.83;42.58;97190.29;108828;1259;60580;-87
2023/10/28 12:34:05;;;;;;;0.50;0.40;;;;;;;18.85;42.36;97192.11;108760;1259;60212;-89
2023/10/28 12:36:33;;;;;;;0.20;0.20;;;;;;;18.93;41.84;97195.95;108796;1259;72005;-87
2023/10/28 12:39:00;;;;;;;1.60;0.20;;;;;;;18.97;41.83;97196.16;108840;1259;73991;-88
2023/10/28 12:41:27;;;;;;;0.40;0.30;;;;;;;19.10;41.31;97207.60;108670;1259;71916;-88
2023/10/28 12:43:54;;;;;;;0.40;0.40;;;;;;;19.16;41.35;97197.08;108698;1260;58818;-88
2023/10/28 12:46:22;;;;;;;0.30;0.30;;;;;;;19.17;41.82;97199.71;108705;1261;59614;-88
2023/10/28 12:48:49;;;;;;;1.50;0.40;;;;;;;19.05;41.78;97198.54;108794;1260;71548;-87
2023/10/28 12:51:17;;;;;;;0.30;0.30;;;;;;;18.89;42.49;97205.51;108794;1261;74155;-89
2023/10/28 12:53:44;;;;;;;0.40;0.20;;;;;;;18.70;42.95;97202.84;108672;1261;71329;-89
2023/10/28 12:56:13;;;;;;;0.30;0.30;;;;;;;18.51;43.40;97210.09;108630;1261;61523;-88
2023/10/28 12:58:40;;;;;;;0.50;0.50;;;;;;;18.31;44.20;97216.64;108630;1265;60429;-89
2023/10/28 13:01:08;;;;;;;1.40;0.60;;;;;;;18.13;45.23;97223.11;108550;1260;73303;-88
2023/10/28 13:03:36;;;;;;;0.50;0.40;;;;;;;17.97;46.00;97221.04;108776;1260;74310;-88
2023/10/28 13:06:09;;;;;;;1.10;0.40;;;;;;;17.83;45.36;97232.57;108662;1262;73670;-89
2023/10/28 13:08:37;;;;;;;1.30;0.50;;;;;;;17.69;45.62;97233.70;108652;1260;60208;-88
2023/10/28 13:11:04;;;;;;;0.70;0.50;;;;;;;17.55;46.46;97237.11;108786;1260;61368;-88
2023/10/28 13:13:32;;;;;;;1.30;0.50;;;;;;;17.43;47.22;97238.89;108826;1259;72828;-88
2023/10/28 13:16:00;;;;;;;1.90;0.60;;;;;;;17.27;47.25;97246.70;108725;1259;74210;-88
2023/10/28 13:18:28;;;;;;;0.50;0.50;;;;;;;17.13;47.71;97245.05;108662;1259;73414;-88
2023/10/28 13:20:59;;;;;;;0.50;0.50;;;;;;;16.98;47.81;97249.64;108668;1259;61368;-88
2023/10/28 13:23:26;;;;;;;1.20;0.90;;;;;;;16.85;48.07;97243.09;108587;1260;60216;-89
2023/10/28 13:25:54;;;;;;;1.90;1.10;;;;;;;16.74;48.62;97248.56;108605;1260;73941;-88
2023/10/28 13:28:21;;;;;;;0.70;0.40;;;;;;;16.63;48.68;97253.16;108797;1259;74482;-87
2023/10/28 13:30:48;;;;;;;2.10;0.60;;;;;;;16.52;48.99;97247.48;108819;1260;72273;-88
2023/10/28 13:33:15;;;;;;;1.00;0.80;;;;;;;16.42;49.52;97260.02;108922;1259;60566;-87
2023/10/28 13:35:42;;;;;;;1.90;1.10;;;;;;;16.31;49.70;97269.36;108944;1259;58895;-88
2023/10/28 13:38:11;;;;;;;1.60;1.00;;;;;;;16.20;49.86;97257.52;108830;1259;72721;-88
2023/10/28 13:40:39;;;;;;;1.00;0.70;;;;;;;16.11;49.98;97262.31;108773;1262;75757;-88
2023/10/28 13:43:07;;;;;;;0.60;0.50;;;;;;;16.03;49.90;97267.98;108812;1261;71472;-88
2023/10/28 13:45:34;;;;;;;3.50;0.70;;;;;;;15.95;49.95;97271.36;108693;1261;61715;-87
2023/10/28 13:48:03;;;;;;;1.20;0.70;;;;;;;15.86;50.05;97263.48;108729;1261;59548;-87
2023/10/28 13:50:33;;;;;;;1.80;0.60;;;;;;;15.80;50.41;97260.38;108620;1260;74088;-85
2023/10/28 13:53:04;;;;;;;0.70;0.40;;;;;;;15.75;50.85;97252.23;108529;1262;75459;-87
2023/10/28 13:55:31;;;;;;;1.00;0.50;;;;;;;15.70;51.06;97257.73;108677;1261;72565;-88
2023/10/28 13:57:59;;;;;;;1.50;1.00;;;;;;;15.66;51.22;97250.31;108757;1260;60477;-87
2023/10/28 14:00:27;;;;;;;0.40;0.40;;;;;;;15.63;51.79;97250.45;108761;1261;59132;-89
2023/10/28 14:02:59;;;;;;;1.20;0.90;;;;;;;15.59;51.45;97255.17;108847;1260;71832;-90
2023/10/28 14:05:28;;;;;;;0.90;0.40;;;;;;;15.54;51.71;97258.91;108752;1260;73795;-88
2023/10/28 14:07:55;;;;;;;0.60;0.60;;;;;;;15.50;51.84;97260.83;108687;1260;72203;-88
2023/10/28 14:10:23;;;;;;;1.10;1.00;;;;;;;15.49;52.10;97258.98;108773;1260;61379;-89
2023/10/28 14:12:50;;;;;;;2.60;1.60;;;;;;;15.50;52.23;97270.35;108778;1260;59215;-88
2023/10/28 14:15:17;;;;;;;0.90;0.60;;;;;;;15.54;51.98;97284.35;108782;1260;71825;-89
2023/10/28 14:17:45;;;;;;;3.60;1.40;;;;;;;15.60;51.80;97280.34;108822;1261;74263;-87
2023/10/28 14:20:12;;;;;;;4.40;2.10;;;;;;;15.67;51.76;97280.66;108742;1262;71616;-88
2023/10/28 14:22:39;;;;;;;2.90;1.10;;;;;;;15.75;51.66;97278.89;108838;1259;60505;-88
2023/10/28 14:25:14;;;;;;;2.00;1.20;;;;;;;15.84;51.56;97280.49;108886;1259;60201;-90
2023/10/28 14:27:44;;;;;;;3.40;2.50;;;;;;;15.92;51.62;97275.29;108727;1259;71772;-89
2023/10/28 14:30:13;;;;;;;2.00;1.00;;;;;;;15.97;51.23;97277.96;108746;1259;74353;-87
2023/10/28 14:32:41;;;;;;;2.60;1.70;;;;;;;15.97;51.09;97277.05;108731;1259;71449;-88
2023/10/28 14:35:09;;;;;;;1.40;1.20;;;;;;;15.92;51.36;97285.00;108831;1259;60413;-88
2023/10/28 14:37:39;;;;;;;1.80;0.60;;;;;;;15.83;51.28;97290.81;108704;1259;60335;-89
2023/10/28 14:40:07;;;;;;;1.20;0.80;;;;;;;15.73;51.53;97287.39;108922;1258;71520;-88
2023/10/28 14:42:42;;;;;;;1.30;0.80;;;;;;;15.61;52.04;97291.45;108892;1259;75619;-88
2023/10/28 14:45:13;;;;;;;2.30;1.10;;;;;;;15.51;52.51;97287.29;108895;1259;71469;-87
2023/10/28 14:47:45;;;;;;;1.60;0.80;;;;;;;15.41;52.80;97288.45;108820;1259;59518;-88
2023/10/28 14:50:13;;;;;;;0.80;0.60;;;;;;;15.33;53.17;97287.73;108774;1259;60418;-88
2023/10/28 14:52:41;;;;;;;1.40;0.90;;;;;;;15.27;53.57;97286.23;108779;1259;72473;-87
2023/10/28 14:55:09;;;;;;;0.80;0.80;;;;;;;15.21;53.90;97286.98;108695;1259;73029;-88
2023/10/28 14:57:37;;;;;;;1.60;1.30;;;;;;;15.15;54.30;97290.99;108902;1259;71410;-88
2023/10/28 15:00:24;;;;;;;1.60;1.20;;;;;;;15.11;54.61;97300.49;108914;1259;59442;-89
2023/10/28 15:02:51;;;;;;;3.70;1.50;;;;;;;15.05;54.85;97301.63;108794;1259;60141;-88
2023/10/28 15:05:19;;;;;;;1.90;1.40;;;;;;;15.01;55.21;97299.00;108744;1259;72966;-88
2023/10/28 15:07:46;;;;;;;2.20;2.00;;;;;;;14.97;55.57;97301.01;108786;1259;75488;-90
2023/10/28 15:10:14;;;;;;;2.10;1.50;;;;;;;14.93;55.83;97301.46;108784;1259;73817;-87
2023/10/28 15:12:41;;;;;;;4.30;2.30;;;;;;;14.90;56.17;97297.85;108817;1259;60033;-89
2023/10/28 15:15:08;;;;;;;3.50;1.30;;;;;;;14.86;56.36;97303.54;108856;1259;60260;-90
2023/10/28 15:17:41;;;;;;;2.40;1.20;;;;;;;14.81;56.62;97300.18;108727;1259;71793;-88
2023/10/28 15:20:10;;;;;;;1.70;1.00;;;;;;;14.78;56.87;97299.08;108695;1259;74487;-89
2023/10/28 15:22:39;;;;;;;1.20;1.00;;;;;;;14.75;57.29;97299.03;108720;1259;74818;-87
2023/10/28 15:25:07;;;;;;;3.10;1.40;;;;;;;14.71;57.41;97295.99;108791;1259;59124;-87
2023/10/28 15:27:35;;;;;;;3.30;1.30;;;;;;;14.68;57.92;97293.82;108843;1259;59094;-88
2023/10/28 15:30:02;;;;;;;1.70;1.50;;;;;;;14.64;58.15;97298.69;108874;1259;71136;-88
2023/10/28 15:32:31;;;;;;;1.80;0.90;;;;;;;14.61;58.31;97295.42;108892;1259;73314;-89
2023/10/28 15:34:58;;;;;;;1.80;1.30;;;;;;;14.58;58.56;97304.20;108849;1259;72776;-88
2023/10/28 15:37:26;;;;;;;1.40;1.00;;;;;;;14.55;58.88;97314.43;108702;1259;60081;-89
2023/10/28 15:39:54;;;;;;;2.30;1.30;;;;;;;14.51;59.20;97310.34;108612;1259;59153;-87
2023/10/28 15:42:23;;;;;;;1.60;0.90;;;;;;;14.46;59.40;97307.67;108721;1259;73524;-90
2023/10/28 15:44:50;;;;;;;3.20;1.10;;;;;;;14.43;59.58;97313.91;108855;1259;73097;-90
2023/10/28 15:47:18;;;;;;;2.30;1.70;;;;;;;14.40;59.82;97311.59;108884;1259;72729;-89
2023/10/28 15:49:45;;;;;;;2.70;1.70;;;;;;;14.37;59.97;97316.36;108756;1262;59086;-90
2023/10/28 15:52:13;;;;;;;4.50;2.50;;;;;;;14.34;60.24;97317.25;108899;1262;59637;-88
2023/10/28 15:54:40;;;;;;;3.40;1.50;;;;;;;14.30;60.36;97318.53;108901;1259;72957;-88
2023/10/28 15:57:08;;;;;;;2.10;1.90;;;;;;;14.26;60.51;97322.22;108845;1259;74203;-87
2023/10/28 15:59:37;;;;;;;2.10;1.40;;;;;;;14.22;60.71;97328.70;108807;1260;72637;-89
2023/10/28 16:02:05;;;;;;;2.20;1.30;;;;;;;14.19;60.92;97327.05;108699;1259;58979;-88
2023/10/28 16:04:32;;;;;;;1.40;1.30;;;;;;;14.15;61.15;97335.20;108741;1259;61135;-88
2023/10/28 16:07:03;;;;;;;4.10;1.20;;;;;;;14.10;61.32;97340.89;108901;1259;72558;-90
2023/10/28 16:09:35;;;;;;;3.80;2.60;;;;;;;14.06;61.65;97348.67;108792;1259;74085;-89
2023/10/28 16:12:04;;;;;;;2.50;1.90;;;;;;;14.02;61.94;97353.92;108869;1259;73509;-88
2023/10/28 16:14:32;;;;;;;4.90;1.50;;;;;;;13.97;62.08;97357.33;108920;1259;59161;-88
2023/10/28 16:17:00;;;;;;;2.90;1.50;;;;;;;13.93;62.18;97359.54;109007;1259;59686;-88
2023/10/28 16:19:27;;;;;;;2.20;1.30;;;;;;;13.89;62.29;97363.31;108999;1259;71581;-90
2023/10/28 16:22:04;;;;;;;1.90;1.20;;;;;;;13.87;62.57;97365.38;108995;1258;74348;-88
2023/10/28 16:24:32;;;;;;;1.60;1.00;;;;;;;13.83;62.73;97370.06;109107;1260;70542;-90
2023/10/28 16:27:05;;;;;;;0.90;0.80;;;;;;;13.81;62.80;97374.80;108963;1259;59141;-88
2023/10/28 16:29:34;;;;;;;0.70;0.60;;;;;;;13.78;62.71;97376.91;109069;1263;60039;-89
2023/10/28 16:32:03;;;;;;;1.70;0.90;;;;;;;13.74;62.95;97374.66;109067;1259;72628;-90
2023/10/28 16:34:33;;;;;;;1.40;1.00;;;;;;;13.73;63.28;97377.32;108776;1259;73330;-89
2023/10/28 16:37:19;;;;;;;1.10;1.00;;;;;;;13.72;63.43;97371.98;108893;1259;71389;-88
2023/10/28 16:39:58;;;;;;;2.40;1.40;;;;;;;13.71;63.49;97371.71;109013;1260;60046;-88
2023/10/28 16:42:39;;;;;;;6.10;3.40;;;;;;;13.70;63.62;97369.45;108773;1258;59254;-89
2023/10/28 16:45:12;;;;;;;7.40;3.20;;;;;;;13.69;63.73;97369.27;108928;1258;72732;-89
2023/10/28 16:47:41;;;;;;;6.50;3.90;;;;;;;13.68;63.68;97375.50;108566;1259;73105;-91
2023/10/28 16:50:12;;;;;;;2.20;1.50;;;;;;;13.66;63.70;97381.92;108922;1259;72630;-88
2023/10/28 16:52:40;;;;;;;3.20;2.20;;;;;;;13.65;63.89;97387.30;108819;1259;60704;-90
2023/10/28 16:55:09;;;;;;;3.40;2.10;;;;;;;13.65;63.99;97379.91;108883;1258;60147;-89
2023/10/28 16:57:40;;;;;;;9.00;2.60;;;;;;;13.65;64.10;97382.17;108799;1260;73789;-89
2023/10/28 17:00:13;;;;;;;4.40;2.00;;;;;;;13.66;64.05;97373.55;108644;1259;74366;-88
2023/10/28 17:02:41;;;;;;;;;;;;;;;13.67;64.17;97377.95;108795;1259;70504;-88
2023/10/28 17:05:08;;;;;;;4.20;1.80;;;;;;;13.66;64.29;97379.03;108747;1260;60268;-87
2023/10/28 17:07:41;;;;;;;1.80;0.90;;;;;;;13.67;64.35;97383.15;108863;1259;59725;-89
2023/10/28 17:10:11;;;;;;;2.20;1.70;;;;;;;13.68;64.51;97385.88;108773;1259;73466;-88
2023/10/28 17:12:39;;;;;;;1.80;1.10;;;;;;;13.69;64.63;97387.02;108838;1259;74817;-89
2023/10/28 17:15:12;;;;;;;1.90;1.00;;;;;;;13.71;64.72;97390.43;108853;1261;71420;-89
2023/10/28 17:17:40;;;;;;;1.90;1.40;;;;;;;13.72;64.81;97386.75;108832;1260;59773;-88
2023/10/28 17:20:08;;;;;;;2.40;1.70;;;;;;;13.72;64.79;97388.35;108896;1261;60367;-88
2023/10/28 17:22:38;;;;;;;4.40;2.90;;;;;;;13.74;64.96;97392.87;108970;1261;71403;-89
2023/10/28 17:25:14;;;;;;;2.70;2.20;;;;;;;13.73;65.07;97396.15;108945;1260;74348;-89
2023/10/28 17:27:42;;;;;;;4.90;1.70;;;;;;;13.72;65.23;97396.43;108947;1259;71380;-89
2023/10/28 17:30:14;;;;;;;1.90;1.60;;;;;;;13.71;65.40;97399.07;108916;1259;59568;-87
2023/10/28 17:32:41;;;;;;;4.40;1.70;;;;;;;13.69;65.49;97392.08;108812;1259;61170;-89
2023/10/28 17:35:12;;;;;;;3.20;1.50;;;;;;;13.68;65.79;97391.62;108658;1259;72413;-88
2023/10/28 17:37:42;;;;;;;3.60;1.20;;;;;;;13.67;65.92;97392.86;108820;1260;74253;-87
2023/10/28 17:40:13;;;;;;;1.90;1.30;;;;;;;13.65;66.07;97393.20;108764;1259;72575;-88
2023/10/28 17:42:47;;;;;;;1.60;0.90;;;;;;;13.63;66.21;97394.64;108592;1260;59129;-89
2023/10/28 17:45:15;;;;;;;2.20;1.60;;;;;;;13.61;66.33;97388.98;108907;1260;59019;-87
2023/10/28 17:47:43;;;;;;;2.00;1.00;;;;;;;13.58;66.50;97391.44;108775;1259;72543;-89
2023/10/28 17:50:11;;;;;;;2.10;1.50;;;;;;;13.56;66.57;97390.88;108738;1259;73326;-88
2023/10/28 17:52:38;;;;;;;2.70;1.80;;;;;;;13.53;66.71;97388.41;108660;1260;70686;-89
2023/10/28 17:55:06;;;;;;;2.10;1.60;;;;;;;13.51;66.87;97386.52;108467;1261;59349;-88
2023/10/28 17:57:35;;;;;;;2.50;1.60;;;;;;;13.48;66.96;97392.52;108877;1260;59310;-87
2023/10/28 18:00:08;;;;;;;2.20;1.50;;;;;;;13.45;67.11;97399.30;109052;1260;73807;-89
2023/10/28 18:02:37;;;;;;;1.40;1.10;;;;;;;13.41;67.27;97403.84;108879;1263;73238;-88
2023/10/28 18:05:14;;;;;;;3.00;1.60;;;;;;;13.38;67.36;97402.35;108943;1259;71408;-87
2023/10/28 18:07:46;;;;;;;2.10;1.80;;;;;;;13.33;67.45;97400.43;108782;1259;59561;-88
2023/10/28 18:10:17;;;;;;;1.60;1.50;;;;;;;13.30;67.57;97401.58;109097;1259;59188;-89
2023/10/28 18:12:50;;;;;;;1.40;1.30;;;;;;;13.28;67.57;97401.64;108916;1259;74001;-89
2023/10/28 18:15:20;;;;;;;5.00;1.40;;;;;;;13.26;67.68;97400.04;109036;1260;73542;-89
2023/10/28 18:18:34;;;;;;;1.10;1.00;;;;;;;13.26;67.79;97403.91;105837;1294;600054;-90
2023/10/28 18:21:08;;;;;;;1.40;0.80;;;;;;;13.23;67.86;97410.38;108695;1266;59311;-87
2023/10/28 18:23:53;;;;;;;3.00;0.70;;;;;;;13.20;67.92;97415.48;108823;1260;58937;-88
2023/10/28 18:26:22;;;;;;;2.50;1.20;;;;;;;13.19;67.96;97414.19;108934;1262;73231;-91
2023/10/28 18:28:51;;;;;;;2.70;0.90;;;;;;;13.19;68.09;97417.93;108750;1260;73033;-89
2023/10/28 18:31:22;;;;;;;1.60;1.00;;;;;;;13.18;68.26;97415.52;108672;1257;252124;-89
2023/10/28 18:33:53;;;;;;;2.40;1.00;;;;;;;13.17;68.32;97414.85;109046;1257;59024;-89
2023/10/28 18:36:21;;;;;;;1.10;0.90;;;;;;;13.17;68.61;97417.77;109002;1257;60200;-88
2023/10/28 18:38:49;;;;;;;2.10;1.10;;;;;;;13.15;68.73;97414.58;109105;1257;69680;-89
2023/10/28 18:41:17;;;;;;;1.50;1.00;;;;;;;13.13;68.98;97415.52;108926;1256;74488;-89
2023/10/28 18:43:46;;;;;;;4.90;2.50;;;;;;;13.11;69.17;97418.23;108877;1257;71222;-87
2023/10/28 18:46:14;;;;;;;2.60;1.20;;;;;;;13.07;69.46;97419.08;108940;1257;59353;-89
2023/10/28 18:48:44;;;;;;;1.40;1.20;;;;;;;13.03;69.57;97419.80;108824;1257;60023;-89
2023/10/28 18:51:13;;;;;;;3.80;1.20;;;;;;;12.99;69.94;97419.27;108908;1257;72891;-88
2023/10/28 18:53:47;;;;;;;3.70;1.60;;;;;;;12.95;70.10;97423.25;108890;1258;72737;-89
2023/10/28 18:56:14;;;;;;;2.30;1.60;;;;;;;12.91;70.42;97431.15;109008;1261;72707;-88
2023/10/28 18:58:42;;;;;;;5.00;1.90;;;;;;;12.89;70.67;97431.95;108875;1257;60989;-88
2023/10/28 19:01:14;;;;;;;1.80;1.60;;;;;;;12.85;70.91;97439.86;108977;1258;59335;-90
2023/10/28 19:03:43;;;;;;;2.30;1.20;;;;;;;12.81;71.18;97445.25;108926;1262;70511;-88
2023/10/28 19:06:15;;;;;;;1.30;0.70;;;;;;;12.76;71.40;97443.02;109453;1254;73705;-89
2023/10/28 19:08:45;;;;;;;0.90;0.70;;;;;;;12.72;71.66;97445.52;109306;1260;72402;-89
2023/10/28 19:11:14;;;;;;;2.40;0.90;;;;;;;12.69;71.90;97447.48;109514;1254;60176;-88
2023/10/28 19:13:41;;;;;;;2.20;1.60;;;;;;;12.65;72.23;97453.02;109279;1254;59569;-89
2023/10/28 19:16:12;;;;;;;1.70;1.10;;;;;;;12.62;72.43;97458.16;109256;1254;75107;-87
2023/10/28 19:18:40;;;;;;;2.00;1.10;;;;;;;12.59;72.70;97457.81;109370;1254;74390;-87
2023/10/28 19:21:11;;;;;;;1.20;0.90;;;;;;;12.57;72.65;97460.38;109172;1254;72117;-88
2023/10/28 19:23:41;;;;;;;1.10;0.80;;;;;;;12.55;72.85;97463.95;109095;1254;62720;-89
2023/10/28 19:26:11;;;;;;;2.60;0.80;;;;;;;12.55;73.09;97465.64;109069;1254;59162;-89
2023/10/28 19:28:39;;;;;;;1.80;0.90;;;;;;;12.55;73.25;97471.02;109207;1254;73037;-89
2023/10/28 19:31:06;;;;;;;2.80;1.40;;;;;;;12.55;73.40;97473.50;109081;1257;73281;-88
2023/10/28 19:33:34;;;;;;;2.50;2.00;;;;;;;12.56;73.38;97480.04;109001;1256;72403;-88
2023/10/28 19:36:06;;;;;;;2.40;1.90;;;;;;;12.59;73.44;97480.64;109212;1256;60486;-89
2023/10/28 19:38:37;;;;;;;4.90;2.90;;;;;;;12.62;73.37;97488.61;109259;1256;60295;-88
2023/10/28 19:41:05;;;;;;;5.10;3.40;;;;;;;12.65;73.38;97493.77;109145;1260;72926;-88
2023/10/28 19:43:33;;;;;;;2.30;2.10;;;;;;;12.67;73.52;97503.50;109004;1256;74296;-89
2023/10/28 19:46:05;;;;;;;1.40;1.10;;;;;;;12.69;73.40;97511.02;109106;1257;72737;-88
2023/10/28 19:48:35;;;;;;;;;;;;;;;12.72;73.40;97518.35;109141;1256;59400;-88
2023/10/28 19:51:06;;;;;;;1.20;0.80;;;;;;;12.72;73.54;97517.92;109055;1254;59192;-89
2023/10/28 19:53:34;;;;;;;2.60;1.00;;;;;;;12.73;73.63;97523.23;109204;1257;71833;-88
2023/10/28 19:56:03;;;;;;;1.20;0.90;;;;;;;12.73;73.64;97522.29;109196;1256;73376;-88
2023/10/28 19:58:31;;;;;;;1.20;0.80;;;;;;;12.73;73.96;97525.38;109160;1257;72601;-90
2023/10/28 20:00:59;;;;;;;1.30;0.80;;;;;;;12.74;74.23;97528.92;109031;1256;60750;-88
2023/10/28 20:03:26;;;;;;;1.40;0.90;;;;;;;12.73;74.56;97534.95;109171;1258;59999;-89
2023/10/28 20:05:53;;;;;;;2.00;0.80;;;;;;;12.70;74.80;97535.88;109230;1256;72663;-88
2023/10/28 20:08:20;;;;;;;2.10;0.70;;;;;;;12.68;75.12;97539.00;109470;1257;73179;-90
2023/10/28 20:10:47;;;;;;;1.10;0.80;;;;;;;12.64;75.26;97546.63;109326;1257;70758;-88
2023/10/28 20:13:15;;;;;;;1.10;0.90;;;;;;;12.61;75.38;97547.09;109132;1256;59295;-89
2023/10/28 20:15:42;;;;;;;1.70;0.60;;;;;;;12.58;75.50;97548.10;109114;1255;61176;-87
2023/10/28 20:18:11;;;;;;;4.20;1.10;;;;;;;12.54;75.75;97546.11;109173;1255;72922;-89
2023/10/28 20:20:38;;;;;;;3.90;2.20;;;;;;;12.51;76.01;97547.66;109234;1257;75042;-89
2023/10/28 20:23:12;;;;;;;2.70;1.70;;;;;;;12.48;76.40;97551.34;109192;1255;71396;-89
2023/10/28 20:25:39;;;;;;;2.20;1.40;;;;;;;12.45;76.61;97555.55;109127;1257;59110;-89
2023/10/28 20:28:06;;;;;;;2.20;1.70;;;;;;;12.43;76.85;97554.83;109242;1257;60090;-87
2023/10/28 20:30:49;;;;;;;2.40;0.80;;;;;;;12.42;77.06;97560.31;108849;1255;72287;-88
2023/10/28 20:33:17;;;;;;;3.20;0.70;;;;;;;12.41;77.23;97561.84;109260;1257;74024;-88
2023/10/28 20:35:44;;;;;;;2.20;0.60;;;;;;;12.42;77.47;97564.28;109282;1256;71367;-87
2023/10/28 20:38:12;;;;;;;2.50;0.90;;;;;;;12.43;77.49;97566.92;109334;1256;60687;-88
2023/10/28 20:40:41;;;;;;;0.70;0.70;;;;;;;12.45;77.51;97571.71;109405;1257;60236;-89
2023/10/28 20:43:08;;;;;;;2.30;1.20;;;;;;;12.47;77.47;97575.29;109298;1257;72676;-89
2023/10/28 20:45:37;;;;;;;1.30;0.80;;;;;;;12.50;77.35;97578.14;109200;1257;74227;-88
2023/10/28 20:48:05;;;;;;;2.00;0.90;;;;;;;12.52;77.39;97583.48;109187;1257;72602;-88
2023/10/28 20:50:33;;;;;;;2.50;1.00;;;;;;;12.54;77.36;97585.42;109053;1256;60280;-88
2023/10/28 20:53:00;;;;;;;2.00;1.60;;;;;;;12.56;77.25;97585.43;109061;1256;60148;-88
2023/10/28 20:55:27;;;;;;;6.20;1.40;;;;;;;12.58;77.22;97587.61;109084;1256;72213;-87
2023/10/28 20:57:55;;;;;;;4.50;2.30;;;;;;;12.56;77.20;97589.04;109134;1258;73000;-87
2023/10/28 21:00:22;;;;;;;3.20;1.70;;;;;;;12.55;77.35;97593.86;109056;1255;72590;-89
2023/10/28 21:02:49;;;;;;;4.30;1.70;;;;;;;12.51;77.63;97595.83;109098;1256;61199;-89
2023/10/28 21:05:17;;;;;;;2.00;1.50;;;;;;;12.47;77.83;97602.98;109338;1256;60627;-90
2023/10/28 21:07:45;;;;;;;2.20;1.20;;;;;;;12.43;77.93;97604.83;109096;1257;72971;-88
2023/10/28 21:10:16;;;;;;;2.70;2.10;;;;;;;12.39;77.97;97608.41;109283;1258;74176;-86
2023/10/28 21:12:45;;;;;;;1.90;1.60;;;;;;;12.34;78.07;97611.66;109306;1256;70336;-89
2023/10/28 21:15:19;;;;;;;2.80;2.00;;;;;;;12.31;78.15;97613.06;109233;1256;58834;-88
2023/10/28 21:17:47;;;;;;;3.50;1.20;;;;;;;12.27;78.29;97613.55;109347;1257;59036;-89
2023/10/28 21:20:15;;;;;;;1.80;1.50;;;;;;;12.24;78.28;97616.67;109204;1256;72280;-88
2023/10/28 21:22:43;;;;;;;2.70;1.40;;;;;;;12.22;78.46;97617.94;109231;1257;72620;-87
2023/10/28 21:25:10;;;;;;;2.10;1.50;;;;;;;12.20;78.62;97618.45;109337;1256;71434;-89
2023/10/28 21:27:38;;;;;;;3.90;2.80;;;;;;;12.19;78.75;97623.73;109336;1256;58911;-88
2023/10/28 21:30:08;;;;;;;3.50;1.70;;;;;;;12.17;78.72;97624.33;108978;1256;59052;-87
2023/10/28 21:32:36;;;;;;;1.40;0.80;;;;;;;12.15;78.49;97626.33;108977;1257;72694;-88
2023/10/28 21:35:03;;;;;;;0.60;0.60;;;;;;;12.13;77.77;97628.27;108897;1256;73918;-87
2023/10/28 21:37:31;;;;;;;1.30;0.80;;;;;;;12.14;77.25;97626.75;108965;1257;71346;-88
2023/10/28 21:39:58;;;;;;;0.70;0.70;;;;;;;12.16;76.77;97630.89;108964;1257;61363;-89
2023/10/28 21:42:27;;;;;;;0.80;0.60;;;;;;;12.19;76.36;97639.92;109118;1256;59139;-88
2023/10/28 21:44:54;;;;;;;2.20;0.60;;;;;;;12.22;75.95;97643.04;108951;1257;71788;-88
2023/10/28 21:47:21;;;;;;;2.30;0.60;;;;;;;12.26;75.15;97644.98;109035;1256;73700;-88
2023/10/28 21:49:50;;;;;;;1.20;0.60;;;;;;;12.31;74.64;97644.95;108966;1257;71943;-88
2023/10/28 21:52:17;;;;;;;1.10;0.70;;;;;;;12.36;74.28;97647.99;109001;1256;60460;-89
2023/10/28 21:54:44;;;;;;;0.80;0.70;;;;;;;12.40;74.01;97651.23;109143;1256;58940;-88
2023/10/28 21:57:12;;;;;;;1.20;0.50;;;;;;;12.43;73.71;97656.67;109061;1257;72868;-88
2023/10/28 21:59:40;;;;;;;1.80;0.50;;;;;;;12.46;73.48;97661.10;109148;1256;73294;-87
2023/10/28 22:02:10;;;;;;;1.00;0.80;;;;;;;12.46;73.41;97665.50;109062;1257;71463;-88
2023/10/28 22:04:39;;;;;;;1.30;0.90;;;;;;;12.47;73.13;97669.75;108944;1257;60016;-88
2023/10/28 22:07:11;;;;;;;3.70;2.30;;;;;;;12.49;73.00;97678.95;108981;1257;59120;-89
2023/10/28 22:09:39;;;;;;;1.10;0.70;;;;;;;12.50;72.84;97679.77;108840;1258;73015;-88
2023/10/28 22:12:07;;;;;;;1.50;0.90;;;;;;;12.51;72.65;97680.15;109082;1256;72818;-89
2023/10/28 22:14:34;;;;;;;0.70;0.60;;;;;;;12.52;72.42;97687.61;108874;1257;72293;-88
2023/10/28 22:17:03;;;;;;;1.00;0.80;;;;;;;12.53;72.15;97690.23;108990;1256;60258;-89
2023/10/28 22:19:30;;;;;;;1.60;0.80;;;;;;;12.53;72.00;97692.00;109035;1256;60279;-88
2023/10/28 22:21:57;;;;;;;1.90;0.90;;;;;;;12.54;72.05;97693.89;109015;1256;71744;-88
2023/10/28 22:24:24;;;;;;;1.40;0.80;;;;;;;12.55;71.89;97693.27;109068;1256;73004;-90
2023/10/28 22:26:51;;;;;;;1.40;0.80;;;;;;;12.57;71.73;97694.41;108998;1256;73945;-88
2023/10/28 22:29:18;;;;;;;0.60;0.60;;;;;;;12.57;71.75;97701.94;108996;1256;59624;-88
2023/10/28 22:31:45;;;;;;;1.10;0.90;;;;;;;12.57;71.66;97708.02;109008;1256;60266;-88
2023/10/28 22:34:12;;;;;;;1.50;0.80;;;;;;;12.57;71.70;97714.09;109065;1256;73592;-89
2023/10/28 22:36:39;;;;;;;1.70;0.90;;;;;;;12.57;71.70;97719.36;108932;1256;74301;-88
2023/10/28 22:39:07;;;;;;;1.30;1.10;;;;;;;12.56;71.68;97724.96;108923;1257;70188;-87
2023/10/28 22:41:34;;;;;;;1.00;0.90;;;;;;;12.55;71.67;97732.79;108958;1256;60420;-87
2023/10/28 22:44:01;;;;;;;0.90;0.70;;;;;;;12.54;71.74;97734.12;108985;1256;59625;-89
2023/10/28 22:46:29;;;;;;;0.80;0.80;;;;;;;12.54;71.75;97732.58;108995;1256;74248;-89
2023/10/28 22:48:57;;;;;;;0.80;0.60;;;;;;;12.52;71.84;97731.95;109119;1256;75094;-89
2023/10/28 22:51:24;;;;;;;0.60;0.60;;;;;;;12.51;71.97;97732.85;109079;1257;72580;-88
2023/10/28 22:53:51;;;;;;;2.00;0.80;;;;;;;12.50;72.12;97730.77;109074;1256;61132;-88
2023/10/28 22:56:18;;;;;;;2.40;1.20;;;;;;;12.49;72.10;97728.81;109093;1256;59452;-88
2023/10/28 22:58:45;;;;;;;1.30;1.20;;;;;;;12.48;72.20;97721.39;108984;1255;73291;-89
2023/10/28 23:01:14;;;;;;;1.40;1.20;;;;;;;12.47;72.24;97714.08;109096;1256;74333;-88